createdAt,value
2023-05-19T00:01:00.318Z,84.75
2023-05-19T00:03:27.169Z,85.40
2023-05-19T00:05:54.102Z,84.86
2023-05-19T00:08:24.641Z,84.72
2023-05-19T00:10:59.188Z,85.38
2023-05-19T00:13:26.044Z,87.26
2023-05-19T00:15:53.075Z,88.37
2023-05-19T00:18:20.646Z,88.18
2023-05-19T00:20:47.126Z,87.67
2023-05-19T00:23:13.646Z,86.78
2023-05-19T00:25:40.415Z,86.01
2023-05-19T00:28:06.913Z,85.26
2023-05-19T00:30:33.644Z,84.69
2023-05-19T00:33:02.992Z,85.16
2023-05-19T00:35:29.600Z,86.53
2023-05-19T00:37:57.213Z,87.03
2023-05-19T00:40:24.560Z,86.72
2023-05-19T00:42:51.110Z,87.24
2023-05-19T00:45:17.740Z,87.84
2023-05-19T00:47:44.384Z,89.42
2023-05-19T00:50:11.037Z,89.96
2023-05-19T00:52:37.758Z,89.97
2023-05-19T00:55:05.180Z,90.75
2023-05-19T00:57:31.685Z,92.11
2023-05-19T01:00:01.476Z,92.36
2023-05-19T01:02:29.829Z,92.70
2023-05-19T01:04:59.785Z,93.18
2023-05-19T01:07:27.304Z,93.10
2023-05-19T01:09:54.129Z,93.99
2023-05-19T01:12:20.714Z,93.82
2023-05-19T01:14:47.721Z,93.12
2023-05-19T01:17:42.366Z,93.73
2023-05-19T01:20:33.908Z,93.02
2023-05-19T01:23:18.590Z,93.27
2023-05-19T01:26:03.455Z,94.17
2023-05-19T01:28:39.055Z,93.15
2023-05-19T01:31:07.667Z,91.50
2023-05-19T01:33:35.894Z,91.33
2023-05-19T01:36:04.065Z,91.46
2023-05-19T01:38:33.532Z,93.45
2023-05-19T01:41:01.381Z,93.20
2023-05-19T01:43:29.244Z,92.95
2023-05-19T01:45:58.781Z,92.93
2023-05-19T01:48:27.184Z,92.30
2023-05-19T01:50:53.719Z,91.59
2023-05-19T01:53:20.328Z,91.38
2023-05-19T01:55:50.788Z,91.80
2023-05-19T01:58:43.908Z,91.21
2023-05-19T02:01:32.161Z,91.98
2023-05-19T02:04:09.346Z,93.06
2023-05-19T02:07:25.297Z,93.80
2023-05-19T02:10:10.781Z,94.73
2023-05-19T02:12:40.946Z,94.24
2023-05-19T02:15:12.366Z,92.92
2023-05-19T02:17:41.617Z,92.18
2023-05-19T02:20:12.049Z,91.07
2023-05-19T02:22:38.639Z,90.59
2023-05-19T02:25:05.595Z,90.33
2023-05-19T02:27:32.136Z,90.88
2023-05-19T02:29:58.692Z,91.16
2023-05-19T02:32:25.337Z,90.63
2023-05-19T02:34:53.329Z,90.87
2023-05-19T02:37:23.755Z,90.16
2023-05-19T02:39:50.386Z,90.09
2023-05-19T02:42:19.777Z,90.05
2023-05-19T02:44:46.584Z,89.87
2023-05-19T02:47:13.553Z,89.78
2023-05-19T02:49:40.454Z,89.28
2023-05-19T02:52:10.101Z,89.50
2023-05-19T02:54:36.603Z,89.61
2023-05-19T02:57:03.382Z,90.68
2023-05-19T02:59:29.904Z,92.40
2023-05-19T03:01:59.934Z,92.59
2023-05-19T03:04:26.593Z,93.48
2023-05-19T03:06:54.170Z,94.60
2023-05-19T03:09:20.837Z,94.59
2023-05-19T03:11:47.458Z,93.41
2023-05-19T03:14:14.018Z,93.45
2023-05-19T03:16:42.160Z,94.92
2023-05-19T03:19:09.534Z,94.39
2023-05-19T03:21:36.724Z,93.91
2023-05-19T03:24:03.435Z,93.72
2023-05-19T03:26:30.038Z,93.48
2023-05-19T03:28:56.561Z,93.41
2023-05-19T03:31:23.069Z,93.41
2023-05-19T03:33:49.611Z,92.65
2023-05-19T03:36:16.091Z,92.46
2023-05-19T03:38:42.625Z,92.68
2023-05-19T03:41:09.130Z,92.94
2023-05-19T03:43:35.699Z,93.55
2023-05-19T03:46:02.329Z,93.02
2023-05-19T03:48:28.998Z,92.67
2023-05-19T03:50:55.656Z,93.54
2023-05-19T03:53:22.274Z,94.80
2023-05-19T03:55:52.141Z,95.94
2023-05-19T03:58:18.892Z,97.34
2023-05-19T04:00:45.376Z,98.45
2023-05-19T04:03:12.040Z,97.74
2023-05-19T04:05:38.739Z,96.38
2023-05-19T04:08:05.609Z,95.50
2023-05-19T04:10:32.407Z,95.49
2023-05-19T04:12:59.160Z,94.88
2023-05-19T04:15:25.989Z,95.52
2023-05-19T04:17:52.607Z,95.04
2023-05-19T04:20:19.211Z,94.31
2023-05-19T04:22:45.689Z,94.36
2023-05-19T04:25:12.296Z,94.41
2023-05-19T04:27:42.366Z,94.92
2023-05-19T04:30:09.409Z,93.77
2023-05-19T04:32:37.460Z,93.77
2023-05-19T04:35:04.796Z,94.92
2023-05-19T04:37:31.545Z,95.31
2023-05-19T04:39:58.180Z,95.58
2023-05-19T04:42:28.969Z,95.08
2023-05-19T04:44:55.554Z,95.18
2023-05-19T04:47:22.161Z,95.47
2023-05-19T04:49:48.793Z,95.17
2023-05-19T04:52:16.039Z,94.51
2023-05-19T04:54:42.634Z,94.38
2023-05-19T04:57:10.467Z,94.55
2023-05-19T04:59:37.034Z,94.14
2023-05-19T05:02:04.361Z,93.84
2023-05-19T05:04:32.088Z,94.56
2023-05-19T05:06:58.600Z,94.92
2023-05-19T05:09:25.300Z,94.99
2023-05-19T05:11:52.038Z,94.71
2023-05-19T05:14:18.944Z,94.47
2023-05-19T05:16:46.466Z,95.84
2023-05-19T05:19:13.419Z,97.23
2023-05-19T05:21:41.489Z,97.77
2023-05-19T05:24:09.270Z,96.83
2023-05-19T05:26:36.147Z,96.02
2023-05-19T05:29:03.815Z,97.01
2023-05-19T05:31:30.416Z,97.18
2023-05-19T05:33:57.143Z,98.23
2023-05-19T05:36:23.761Z,99.04
2023-05-19T05:38:53.465Z,99.68
2023-05-19T05:41:21.960Z,99.89
2023-05-19T05:43:48.532Z,100.00
2023-05-19T05:46:15.113Z,100.00
2023-05-19T05:48:42.707Z,100.00
2023-05-19T05:51:09.722Z,100.00
2023-05-19T05:53:41.908Z,100.00
2023-05-19T05:56:09.652Z,100.00
2023-05-19T05:58:37.668Z,100.00
2023-05-19T06:01:04.856Z,100.00
2023-05-19T06:03:31.967Z,100.00
2023-05-19T06:05:58.606Z,100.00
2023-05-19T06:08:25.215Z,98.68
2023-05-19T06:10:51.725Z,96.34
2023-05-19T06:13:22.537Z,97.31
2023-05-19T06:15:49.119Z,97.76
2023-05-19T06:18:15.780Z,97.21
2023-05-19T06:20:42.292Z,96.78
2023-05-19T06:23:08.939Z,95.98
2023-05-19T06:25:35.693Z,95.75
2023-05-19T06:28:03.565Z,95.60
2023-05-19T06:30:30.216Z,94.60
2023-05-19T06:32:56.850Z,94.28
2023-05-19T06:35:23.447Z,93.20
2023-05-19T06:37:50.049Z,92.28
2023-05-19T06:40:16.642Z,94.10
2023-05-19T06:42:43.175Z,92.62
2023-05-19T06:45:10.260Z,91.94
2023-05-19T06:47:36.864Z,92.44
2023-05-19T06:50:03.484Z,92.63
2023-05-19T06:52:30.008Z,92.86
2023-05-19T06:54:56.754Z,92.72
2023-05-19T06:57:23.768Z,93.23
2023-05-19T06:59:50.457Z,93.17
2023-05-19T07:02:17.180Z,92.54
2023-05-19T07:04:47.366Z,92.15
2023-05-19T07:07:13.926Z,92.36
2023-05-19T07:09:40.689Z,93.07
2023-05-19T07:12:07.522Z,92.10
2023-05-19T07:14:34.076Z,91.90
2023-05-19T07:17:00.699Z,91.73
2023-05-19T07:19:27.300Z,91.91
2023-05-19T07:21:54.947Z,91.55
2023-05-19T07:24:22.213Z,91.96
2023-05-19T07:26:48.969Z,92.37
2023-05-19T07:29:15.637Z,92.74
2023-05-19T07:31:42.227Z,91.34
2023-05-19T07:34:09.024Z,91.46
2023-05-19T07:36:35.987Z,89.89
2023-05-19T07:39:02.619Z,89.82
2023-05-19T07:41:29.199Z,89.54
2023-05-19T07:43:55.961Z,86.61
2023-05-19T07:46:22.622Z,87.29
2023-05-19T07:48:49.461Z,86.47
2023-05-19T07:51:16.194Z,83.43
2023-05-19T07:53:42.773Z,84.08
2023-05-19T07:56:11.850Z,81.90
2023-05-19T07:58:38.514Z,81.42
2023-05-19T08:01:05.227Z,82.20
2023-05-19T08:03:32.058Z,82.43
2023-05-19T08:05:58.766Z,81.96
2023-05-19T08:08:25.584Z,79.22
2023-05-19T08:10:52.210Z,78.28
2023-05-19T08:13:18.713Z,79.06
2023-05-19T08:15:45.362Z,78.59
2023-05-19T08:18:11.932Z,78.03
2023-05-19T08:20:38.621Z,77.07
2023-05-19T08:23:05.376Z,78.44
2023-05-19T08:25:32.156Z,77.85
2023-05-19T08:27:58.649Z,77.71
2023-05-19T08:30:25.245Z,78.06
2023-05-19T08:32:51.892Z,76.07
2023-05-19T08:35:21.520Z,75.03
2023-05-19T08:37:48.020Z,72.28
2023-05-19T08:40:17.502Z,71.85
2023-05-19T08:42:45.583Z,74.43
2023-05-19T08:45:15.013Z,67.68
2023-05-19T08:47:42.483Z,70.43
2023-05-19T08:50:11.817Z,68.53
2023-05-19T08:52:50.264Z,65.35
2023-05-19T08:55:53.348Z,67.53
2023-05-19T08:58:23.219Z,64.24
2023-05-19T09:00:51.137Z,66.12
2023-05-19T09:05:49.633Z,64.13
2023-05-19T09:08:16.602Z,63.24
2023-05-19T09:10:43.281Z,63.50
2023-05-19T09:13:09.854Z,63.82
2023-05-19T09:15:39.137Z,62.86
2023-05-19T09:18:08.383Z,63.67
2023-05-19T09:20:45.089Z,60.17
2023-05-19T09:23:16.363Z,60.14
2023-05-19T09:25:50.393Z,60.75
2023-05-19T09:28:29.402Z,64.45
2023-05-19T09:31:06.242Z,62.87
2023-05-19T09:33:34.909Z,61.99
2023-05-19T09:36:01.942Z,63.36
2023-05-19T09:38:31.517Z,61.69
2023-05-19T09:40:59.774Z,63.19
2023-05-19T09:43:31.812Z,61.02
2023-05-19T09:46:13.612Z,64.31
2023-05-19T09:48:41.080Z,63.30
2023-05-19T09:51:10.715Z,61.54
2023-05-19T09:53:38.994Z,62.55
2023-05-19T09:56:08.624Z,61.82
2023-05-19T09:58:36.371Z,61.03
2023-05-19T10:01:07.559Z,59.33
2023-05-19T10:03:34.616Z,58.70
2023-05-19T10:06:02.063Z,60.48
2023-05-19T10:08:32.261Z,57.69
2023-05-19T10:11:00.081Z,55.96
2023-05-19T10:13:28.200Z,55.75
2023-05-19T10:15:59.239Z,58.25
2023-05-19T10:18:27.817Z,59.01
2023-05-19T10:20:54.959Z,59.55
2023-05-19T10:23:22.382Z,59.72
2023-05-19T10:25:52.001Z,61.50
2023-05-19T10:28:25.887Z,57.68
2023-05-19T10:30:56.877Z,59.15
2023-05-19T10:33:47.375Z,59.01
2023-05-19T10:36:35.390Z,58.72
2023-05-19T10:39:07.794Z,60.29
2023-05-19T10:41:47.048Z,58.66
2023-05-19T10:44:30.652Z,57.63
2023-05-19T10:46:57.478Z,57.40
2023-05-19T10:49:24.292Z,56.37
2023-05-19T10:51:52.534Z,58.05
2023-05-19T10:54:40.710Z,60.50
2023-05-19T10:57:08.340Z,60.84
2023-05-19T10:59:40.045Z,58.31
2023-05-19T11:02:10.122Z,62.01
2023-05-19T11:04:54.117Z,61.26
2023-05-19T11:07:22.444Z,60.65
2023-05-19T11:09:53.478Z,60.89
2023-05-19T11:12:25.050Z,60.35
2023-05-19T11:14:55.089Z,59.51
2023-05-19T11:17:23.769Z,57.91
2023-05-19T11:19:58.663Z,57.94
2023-05-19T11:22:26.938Z,57.20
2023-05-19T11:24:59.779Z,56.81
2023-05-19T11:27:31.395Z,56.73
2023-05-19T11:30:00.482Z,58.37
2023-05-19T11:32:29.288Z,58.26
2023-05-19T11:34:57.631Z,58.87
2023-05-19T11:37:24.353Z,58.29
2023-05-19T11:39:52.276Z,59.14
2023-05-19T11:42:19.176Z,59.89
2023-05-19T11:44:46.410Z,61.78
2023-05-19T11:47:14.326Z,58.94
2023-05-19T11:49:45.908Z,59.68
2023-05-19T11:52:12.930Z,56.98
2023-05-19T11:54:41.827Z,54.72
2023-05-19T11:57:10.633Z,55.08
2023-05-19T11:59:39.235Z,56.63
2023-05-19T12:02:19.201Z,58.51
2023-05-19T12:04:46.967Z,60.99
2023-05-19T12:07:17.653Z,58.39
2023-05-19T12:09:46.020Z,56.23
2023-05-19T12:12:22.538Z,57.65
2023-05-19T12:14:51.120Z,60.15
2023-05-19T12:17:25.531Z,59.99
2023-05-19T12:19:52.460Z,59.25
2023-05-19T12:22:19.277Z,59.47
2023-05-19T12:24:47.198Z,59.44
2023-05-19T12:27:19.596Z,59.38
2023-05-19T12:29:57.308Z,59.73
2023-05-19T12:32:25.384Z,55.66
2023-05-19T12:34:53.005Z,55.93
2023-05-19T12:37:19.793Z,57.12
2023-05-19T12:39:48.320Z,58.97
2023-05-19T12:42:16.191Z,55.27
2023-05-19T12:44:46.509Z,54.30
2023-05-19T12:47:14.859Z,54.72
2023-05-19T12:50:01.534Z,57.05
2023-05-19T12:52:29.504Z,56.36
2023-05-19T12:55:05.268Z,56.82
2023-05-19T12:57:38.666Z,57.21
2023-05-19T13:00:10.658Z,58.28
2023-05-19T13:03:08.519Z,60.26
2023-05-19T13:05:39.620Z,59.56
2023-05-19T13:08:08.924Z,61.26
2023-05-19T13:10:36.763Z,56.90
2023-05-19T13:13:04.235Z,58.37
2023-05-19T13:15:36.465Z,57.11
2023-05-19T13:18:06.189Z,59.56
2023-05-19T13:20:33.532Z,59.42
2023-05-19T13:23:00.409Z,58.76
2023-05-19T13:25:27.505Z,59.58
2023-05-19T13:27:54.650Z,59.84
2023-05-19T13:30:21.961Z,58.85
2023-05-19T13:32:48.622Z,58.65
2023-05-19T13:35:18.403Z,56.74
2023-05-19T13:37:45.062Z,58.56
2023-05-19T13:40:12.177Z,59.29
2023-05-19T13:42:38.893Z,59.43
2023-05-19T13:45:06.061Z,57.03
2023-05-19T13:47:32.718Z,57.28
2023-05-19T13:49:59.362Z,58.89
2023-05-19T13:52:28.090Z,57.65
2023-05-19T13:54:56.626Z,59.23
2023-05-19T13:57:23.784Z,59.38
2023-05-19T14:00:10.817Z,58.05
2023-05-19T14:02:38.201Z,56.44
2023-05-19T14:05:05.890Z,57.04
2023-05-19T14:07:34.660Z,56.56
2023-05-19T14:10:02.584Z,57.76
2023-05-19T14:12:37.983Z,58.16
2023-05-19T14:15:14.202Z,57.94
2023-05-19T14:17:40.821Z,59.25
2023-05-19T14:20:08.510Z,57.60
2023-05-19T14:22:35.183Z,55.91
2023-05-19T14:25:02.503Z,57.82
2023-05-19T14:27:29.006Z,56.49
2023-05-19T14:29:55.642Z,54.94
2023-05-19T14:32:22.359Z,55.94
2023-05-19T14:34:52.823Z,52.77
2023-05-19T14:37:20.817Z,56.53
2023-05-19T14:39:47.375Z,55.06
2023-05-19T14:42:16.861Z,55.43
2023-05-19T14:44:43.422Z,54.98
2023-05-19T14:47:11.195Z,54.13
2023-05-19T14:49:39.233Z,55.38
2023-05-19T14:52:06.061Z,55.41
2023-05-19T14:54:32.656Z,54.94
2023-05-19T14:56:59.228Z,54.11
2023-05-19T14:59:26.215Z,55.33
2023-05-19T15:01:52.729Z,55.77
2023-05-19T15:04:19.302Z,56.36
2023-05-19T15:06:48.235Z,55.32
2023-05-19T15:09:18.989Z,55.55
2023-05-19T15:11:45.663Z,54.46
2023-05-19T15:14:12.201Z,55.12
2023-05-19T15:16:38.728Z,56.26
2023-05-19T15:19:05.365Z,56.22
2023-05-19T15:21:31.932Z,55.67
2023-05-19T15:23:58.444Z,55.78
2023-05-19T15:26:25.183Z,55.88
2023-05-19T15:28:52.726Z,56.86
2023-05-19T15:31:19.319Z,56.48
2023-05-19T15:33:46.082Z,55.87
2023-05-19T15:36:16.393Z,55.90
2023-05-19T15:38:42.928Z,55.17
2023-05-19T15:41:10.200Z,54.61
2023-05-19T15:43:36.951Z,54.55
2023-05-19T15:46:04.995Z,54.83
2023-05-19T15:48:32.349Z,54.55
2023-05-19T15:50:59.794Z,53.54
2023-05-19T15:53:26.459Z,54.30
2023-05-19T15:55:52.946Z,53.44
2023-05-19T15:58:19.543Z,55.08
2023-05-19T16:00:48.196Z,55.27
2023-05-19T16:03:14.882Z,54.18
2023-05-19T16:05:41.467Z,54.41
2023-05-19T16:08:08.891Z,55.15
2023-05-19T16:10:38.483Z,55.27
2023-05-19T16:13:05.038Z,55.37
2023-05-19T16:15:31.541Z,55.13
2023-05-19T16:17:58.102Z,55.21
2023-05-19T16:20:27.854Z,55.94
2023-05-19T16:22:55.437Z,55.56
2023-05-19T16:25:22.344Z,55.97
2023-05-19T16:27:48.967Z,56.08
2023-05-19T16:30:16.486Z,57.33
2023-05-19T16:32:43.179Z,55.11
2023-05-19T16:35:10.033Z,55.13
2023-05-19T16:37:36.574Z,55.18
2023-05-19T16:40:03.506Z,54.45
2023-05-19T16:42:30.081Z,55.93
2023-05-19T16:44:56.572Z,55.80
2023-05-19T16:47:23.149Z,55.64
2023-05-19T16:49:49.689Z,55.02
2023-05-19T16:52:16.215Z,56.35
2023-05-19T16:54:42.739Z,57.16
2023-05-19T16:57:09.811Z,56.16
2023-05-19T16:59:36.345Z,57.61
2023-05-19T17:02:03.409Z,56.29
2023-05-19T17:04:30.891Z,58.14
2023-05-19T17:06:57.627Z,56.00
2023-05-19T17:09:26.205Z,58.08
2023-05-19T17:11:53.557Z,56.63
2023-05-19T17:14:20.976Z,57.54
2023-05-19T17:16:47.734Z,57.67
2023-05-19T17:19:16.175Z,56.52
2023-05-19T17:21:42.734Z,57.87
2023-05-19T17:24:09.338Z,58.45
2023-05-19T17:26:35.958Z,58.01
2023-05-19T17:29:02.509Z,57.23
2023-05-19T17:31:29.107Z,57.49
2023-05-19T17:33:58.096Z,57.90
2023-05-19T17:36:24.565Z,58.87
2023-05-19T17:38:51.200Z,58.90
2023-05-19T17:41:17.912Z,60.97
2023-05-19T17:43:44.438Z,59.71
2023-05-19T17:46:12.055Z,59.56
2023-05-19T17:48:39.727Z,61.38
2023-05-19T17:51:09.153Z,61.38
2023-05-19T17:53:36.554Z,61.60
2023-05-19T17:56:06.543Z,61.82
2023-05-19T17:58:33.446Z,61.58
2023-05-19T18:01:00.372Z,62.73
2023-05-19T18:03:27.188Z,61.65
2023-05-19T18:05:58.633Z,63.31
2023-05-19T18:08:25.952Z,63.41
2023-05-19T18:10:54.109Z,63.13
2023-05-19T18:13:23.551Z,65.82
2023-05-19T18:15:50.555Z,66.41
2023-05-19T18:18:17.136Z,67.20
2023-05-19T18:20:47.560Z,67.05
2023-05-19T18:23:14.097Z,67.55
2023-05-19T18:25:40.643Z,67.97
2023-05-19T18:28:07.983Z,68.64
2023-05-19T18:30:34.905Z,68.31
2023-05-19T18:33:03.673Z,68.18
2023-05-19T18:35:30.479Z,67.75
2023-05-19T18:37:57.368Z,68.40
2023-05-19T18:40:24.519Z,68.05
2023-05-19T18:42:51.010Z,68.59
2023-05-19T18:45:17.491Z,68.59
2023-05-19T18:47:46.815Z,68.57
2023-05-19T18:50:14.279Z,69.19
2023-05-19T18:52:40.909Z,69.11
2023-05-19T18:55:07.770Z,69.01
2023-05-19T18:57:34.319Z,69.24
2023-05-19T19:00:00.837Z,69.52
2023-05-19T19:02:27.397Z,67.93
2023-05-19T19:04:53.992Z,69.40
2023-05-19T19:07:20.642Z,71.24
2023-05-19T19:09:47.144Z,72.38
2023-05-19T19:12:13.737Z,72.55
2023-05-19T19:14:40.304Z,72.63
2023-05-19T19:17:06.863Z,73.46
2023-05-19T19:19:33.461Z,73.69
2023-05-19T19:22:00.136Z,74.61
2023-05-19T19:24:28.412Z,75.90
2023-05-19T19:26:54.931Z,76.00
2023-05-19T19:29:21.923Z,74.77
2023-05-19T19:31:48.740Z,74.44
2023-05-19T19:34:15.638Z,75.33
2023-05-19T19:36:42.168Z,75.77
2023-05-19T19:39:08.704Z,75.46
2023-05-19T19:41:35.301Z,75.08
2023-05-19T19:44:01.842Z,75.48
2023-05-19T19:46:31.179Z,76.21
2023-05-19T19:49:00.613Z,77.56
2023-05-19T19:51:27.832Z,78.64
2023-05-19T19:53:54.635Z,79.90
2023-05-19T19:56:23.593Z,80.49
2023-05-19T19:58:51.039Z,80.83
2023-05-19T20:01:20.285Z,80.77
2023-05-19T20:03:47.337Z,80.97
2023-05-19T20:06:14.198Z,81.64
2023-05-19T20:08:40.773Z,81.75
2023-05-19T20:11:07.307Z,83.12
2023-05-19T20:13:34.011Z,82.89
2023-05-19T20:16:03.365Z,83.17
2023-05-19T20:18:30.172Z,83.53
2023-05-19T20:20:56.995Z,84.37
2023-05-19T20:23:23.557Z,84.40
2023-05-19T20:26:06.701Z,82.65
2023-05-19T20:28:37.291Z,81.21
2023-05-19T20:31:03.909Z,81.99
2023-05-19T20:33:30.469Z,82.85
2023-05-19T20:35:57.040Z,83.69
2023-05-19T20:38:23.547Z,84.54
2023-05-19T20:40:50.149Z,84.58
2023-05-19T20:43:16.717Z,83.96
2023-05-19T20:45:44.257Z,84.37
2023-05-19T20:48:11.314Z,85.49
2023-05-19T20:50:39.366Z,85.50
2023-05-19T20:53:07.301Z,85.79
2023-05-19T20:55:36.264Z,86.22
2023-05-19T20:58:06.475Z,86.13
2023-05-19T21:00:33.581Z,86.81
2023-05-19T21:03:00.748Z,87.03
2023-05-19T21:05:27.338Z,88.14
2023-05-19T21:07:53.984Z,88.06
2023-05-19T21:10:23.584Z,88.21
2023-05-19T21:13:00.843Z,88.97
2023-05-19T21:15:27.460Z,88.76
2023-05-19T21:17:55.092Z,88.52
2023-05-19T21:20:21.775Z,88.96
2023-05-19T21:22:48.300Z,89.32
2023-05-19T21:25:17.004Z,89.36
2023-05-19T21:27:48.679Z,89.34
2023-05-19T21:30:24.456Z,89.47
2023-05-19T21:32:51.347Z,88.67
2023-05-19T21:35:17.933Z,87.92
2023-05-19T21:37:44.494Z,89.09
2023-05-19T21:40:11.664Z,89.14
2023-05-19T21:42:38.217Z,89.18
2023-05-19T21:45:05.225Z,88.85
2023-05-19T21:47:33.723Z,89.25
2023-05-19T21:50:03.120Z,89.43
2023-05-19T21:52:30.271Z,89.97
2023-05-19T21:55:00.035Z,90.56
2023-05-19T21:57:26.654Z,90.99
2023-05-19T21:59:53.193Z,92.20
2023-05-19T22:02:23.143Z,92.65
2023-05-19T22:04:55.771Z,91.75
2023-05-19T22:07:26.783Z,91.69
2023-05-19T22:09:53.695Z,92.78
2023-05-19T22:12:20.326Z,93.88
2023-05-19T22:14:46.805Z,94.21
2023-05-19T22:17:13.326Z,94.44
2023-05-19T22:19:39.810Z,95.51
2023-05-19T22:22:13.777Z,95.85
2023-05-19T22:24:41.223Z,95.19
2023-05-19T22:27:08.545Z,94.62
2023-05-19T22:29:38.665Z,94.32
2023-05-19T22:32:12.067Z,94.15
2023-05-19T22:34:41.955Z,94.20
2023-05-19T22:37:08.531Z,94.10
2023-05-19T22:39:35.193Z,94.27
2023-05-19T22:42:02.522Z,95.23
2023-05-19T22:44:29.052Z,95.67
2023-05-19T22:47:00.534Z,95.22
2023-05-19T22:49:29.837Z,94.50
2023-05-19T22:51:56.336Z,94.30
2023-05-19T22:54:25.375Z,95.03
2023-05-19T22:56:51.870Z,95.57
2023-05-19T22:59:18.504Z,95.81
2023-05-19T23:01:51.221Z,96.31
2023-05-19T23:04:17.921Z,96.39
2023-05-19T23:06:49.627Z,97.42
2023-05-19T23:09:17.866Z,96.97
2023-05-19T23:11:45.178Z,95.98
2023-05-19T23:14:11.725Z,95.92
2023-05-19T23:16:41.310Z,95.36
2023-05-19T23:19:11.202Z,95.39
2023-05-19T23:21:37.760Z,95.08
2023-05-19T23:24:05.665Z,96.35
2023-05-19T23:26:37.748Z,96.32
2023-05-19T23:29:11.251Z,95.16
2023-05-19T23:31:42.141Z,95.00
2023-05-19T23:34:12.066Z,94.89
2023-05-19T23:36:38.571Z,94.59
2023-05-19T23:39:05.087Z,95.05
2023-05-19T23:41:31.743Z,95.58
2023-05-19T23:43:58.382Z,95.48
2023-05-19T23:46:27.600Z,95.63
2023-05-19T23:48:57.490Z,95.93
2023-05-19T23:51:24.152Z,96.23
2023-05-19T23:53:50.873Z,96.66
2023-05-19T23:56:17.402Z,96.09
2023-05-19T23:58:46.561Z,96.10
